createdAt,value
2023-05-05T00:00:30.020Z,101223.31
2023-05-05T00:02:57.140Z,101221.03
2023-05-05T00:05:25.641Z,101214.66
2023-05-05T00:07:52.474Z,101220.53
2023-05-05T00:10:19.341Z,101217.50
2023-05-05T00:12:46.975Z,101206.19
2023-05-05T00:15:14.262Z,101209.03
2023-05-05T00:17:41.914Z,101208.00
2023-05-05T00:20:10.308Z,101208.00
2023-05-05T00:22:37.378Z,101208.25
2023-05-05T00:25:05.112Z,101207.13
2023-05-05T00:27:33.103Z,101203.03
2023-05-05T00:29:59.919Z,101202.34
2023-05-05T00:32:27.001Z,101204.91
2023-05-05T00:34:54.614Z,101213.22
2023-05-05T00:37:21.777Z,101208.16
2023-05-05T00:39:48.880Z,101207.13
2023-05-05T00:42:15.719Z,101212.66
2023-05-05T00:44:42.642Z,101207.50
2023-05-05T00:47:09.873Z,101206.28
2023-05-05T00:49:38.294Z,101202.56
2023-05-05T00:52:05.867Z,101206.44
2023-05-05T00:54:34.765Z,101191.13
2023-05-05T00:57:04.716Z,101191.34
2023-05-05T00:59:33.781Z,101193.63
2023-05-05T01:02:00.801Z,101192.47
2023-05-05T01:04:28.196Z,101188.28
2023-05-05T01:07:32.828Z,101194.91
2023-05-05T01:10:19.721Z,101192.84
2023-05-05T01:13:31.689Z,101190.53
2023-05-05T01:16:12.893Z,101185.22
2023-05-05T01:18:50.568Z,101185.59
2023-05-05T01:21:23.787Z,101188.34
2023-05-05T01:24:11.130Z,101190.91
2023-05-05T01:26:51.467Z,101187.09
2023-05-05T01:29:57.858Z,101192.88
2023-05-05T01:32:30.334Z,101188.94
2023-05-05T01:35:01.826Z,101194.50
2023-05-05T01:37:40.151Z,101189.25
2023-05-05T01:40:09.060Z,101189.88
2023-05-05T01:42:36.844Z,101189.72
2023-05-05T01:45:06.914Z,101189.47
2023-05-05T01:47:34.130Z,101184.97
2023-05-05T01:50:02.246Z,101181.38
2023-05-05T01:52:30.226Z,101176.91
2023-05-05T01:54:58.035Z,101177.56
2023-05-05T01:57:26.115Z,101181.47
2023-05-05T01:59:53.574Z,101177.94
2023-05-05T02:02:22.006Z,101173.97
2023-05-05T02:04:50.066Z,101168.66
2023-05-05T02:07:17.337Z,101173.19
2023-05-05T02:09:45.095Z,101175.75
2023-05-05T02:12:12.231Z,101182.22
2023-05-05T02:14:40.090Z,101176.22
2023-05-05T02:17:07.675Z,101181.81
2023-05-05T02:19:38.582Z,101177.34
2023-05-05T02:22:06.147Z,101174.06
2023-05-05T02:24:34.016Z,101175.47
2023-05-05T02:27:04.311Z,101175.72
2023-05-05T02:29:52.872Z,101170.19
2023-05-05T02:32:28.106Z,101163.75
2023-05-05T02:34:56.488Z,101166.66
2023-05-05T02:37:24.591Z,101161.53
2023-05-05T02:40:00.654Z,101173.53
2023-05-05T02:42:40.663Z,101168.22
2023-05-05T02:45:13.409Z,101168.59
2023-05-05T02:47:43.275Z,101165.75
2023-05-05T02:50:11.729Z,101172.00
2023-05-05T02:52:45.011Z,101170.63
2023-05-05T02:55:13.218Z,101170.13
2023-05-05T02:57:48.079Z,101168.94
2023-05-05T03:00:27.221Z,101178.53
2023-05-05T03:03:06.085Z,101186.09
2023-05-05T03:05:49.641Z,101168.06
2023-05-05T03:08:18.527Z,101170.13
2023-05-05T03:11:34.361Z,101169.63
2023-05-05T03:14:12.353Z,101173.03
2023-05-05T03:16:42.830Z,101172.00
2023-05-05T03:19:11.969Z,101170.50
2023-05-05T03:21:41.144Z,101167.91
2023-05-05T03:24:19.195Z,101175.19
2023-05-05T03:26:58.192Z,101179.69
2023-05-05T03:29:32.217Z,101173.56
2023-05-05T03:32:01.368Z,101167.13
2023-05-05T03:34:29.178Z,101170.84
2023-05-05T03:36:57.962Z,101170.31
2023-05-05T03:39:24.904Z,101180.44
2023-05-05T03:41:52.149Z,101179.06
2023-05-05T03:44:20.799Z,101182.44
2023-05-05T03:46:47.897Z,101173.25
2023-05-05T03:49:15.952Z,101183.88
2023-05-05T03:51:44.789Z,101176.94
2023-05-05T03:54:11.727Z,101189.88
2023-05-05T03:56:40.333Z,101183.38
2023-05-05T03:59:07.236Z,101174.59
2023-05-05T04:01:35.491Z,101172.97
2023-05-05T04:04:02.493Z,101173.44
2023-05-05T04:06:29.583Z,101177.94
2023-05-05T04:08:56.617Z,101164.34
2023-05-05T04:11:24.071Z,101164.66
2023-05-05T04:13:51.163Z,101162.69
2023-05-05T04:16:18.886Z,101164.41
2023-05-05T04:18:46.137Z,101169.88
2023-05-05T04:21:13.602Z,101166.88
2023-05-05T04:23:41.435Z,101168.34
2023-05-05T04:26:08.740Z,101173.94
2023-05-05T04:28:35.995Z,101171.88
2023-05-05T04:31:05.478Z,101165.53
2023-05-05T04:33:36.027Z,101172.22
2023-05-05T04:36:03.198Z,101168.84
2023-05-05T04:38:30.232Z,101168.63
2023-05-05T04:40:57.315Z,101180.78
2023-05-05T04:43:24.271Z,101178.38
2023-05-05T04:45:55.294Z,101194.59
2023-05-05T04:48:25.377Z,101198.97
2023-05-05T04:50:52.312Z,101195.19
2023-05-05T04:53:19.404Z,101192.59
2023-05-05T04:55:46.664Z,101198.69
2023-05-05T04:58:13.551Z,101201.00
2023-05-05T05:00:43.494Z,101196.38
2023-05-05T05:03:10.980Z,101197.41
2023-05-05T05:05:38.050Z,101196.78
2023-05-05T05:08:05.256Z,101200.88
2023-05-05T05:10:32.126Z,101196.13
2023-05-05T05:12:58.999Z,101208.44
2023-05-05T05:15:27.209Z,101203.91
2023-05-05T05:17:54.127Z,101205.69
2023-05-05T05:20:21.407Z,101202.38
2023-05-05T05:22:48.315Z,101208.34
2023-05-05T05:25:18.324Z,101210.38
2023-05-05T05:27:55.305Z,101211.09
2023-05-05T05:30:34.190Z,101217.50
2023-05-05T05:33:03.347Z,101212.28
2023-05-05T05:35:30.726Z,101219.09
2023-05-05T05:37:58.035Z,101214.94
2023-05-05T05:40:25.737Z,101222.38
2023-05-05T05:42:52.682Z,101214.94
2023-05-05T05:45:19.606Z,101221.31
2023-05-05T05:47:46.847Z,101215.88
2023-05-05T05:50:14.084Z,101219.44
2023-05-05T05:52:41.806Z,101223.31
2023-05-05T05:55:09.311Z,101226.63
2023-05-05T05:57:37.108Z,101227.03
2023-05-05T06:00:06.708Z,101229.22
2023-05-05T06:02:38.970Z,101230.72
2023-05-05T06:05:10.783Z,101229.47
2023-05-05T06:07:37.764Z,101225.94
2023-05-05T06:10:22.846Z,101228.84
2023-05-05T06:12:55.079Z,101236.09
2023-05-05T06:15:23.196Z,101229.53
2023-05-05T06:17:50.204Z,101227.25
2023-05-05T06:20:17.238Z,101234.69
2023-05-05T06:22:44.263Z,101232.03
2023-05-05T06:25:11.480Z,101231.97
2023-05-05T06:27:38.808Z,101227.88
2023-05-05T06:30:07.411Z,101229.59
2023-05-05T06:32:34.854Z,101224.84
2023-05-05T06:35:02.025Z,101223.97
2023-05-05T06:37:30.021Z,101227.41
2023-05-05T06:39:57.158Z,101227.13
2023-05-05T06:42:24.146Z,101221.41
2023-05-05T06:44:52.988Z,101230.34
2023-05-05T06:47:19.958Z,101229.03
2023-05-05T06:49:46.750Z,101230.19
2023-05-05T06:52:13.651Z,101227.69
2023-05-05T06:54:40.683Z,101230.94
2023-05-05T06:57:07.639Z,101235.13
2023-05-05T06:59:34.869Z,101227.13
2023-05-05T07:02:01.677Z,101230.56
2023-05-05T07:04:28.577Z,101233.03
2023-05-05T07:06:55.582Z,101225.03
2023-05-05T07:09:22.433Z,101225.91
2023-05-05T07:11:50.688Z,101234.72
2023-05-05T07:14:17.641Z,101235.00
2023-05-05T07:16:44.734Z,101235.31
2023-05-05T07:19:11.590Z,101232.84
2023-05-05T07:21:40.130Z,101235.47
2023-05-05T07:24:07.270Z,101232.44
2023-05-05T07:26:34.186Z,101230.13
2023-05-05T07:29:02.635Z,101236.13
2023-05-05T07:31:29.646Z,101238.19
2023-05-05T07:33:56.573Z,101230.56
2023-05-05T07:36:23.532Z,101238.84
2023-05-05T07:38:50.521Z,101237.19
2023-05-05T07:41:18.724Z,101238.00
2023-05-05T07:43:46.250Z,101247.38
2023-05-05T07:46:14.055Z,101244.16
2023-05-05T07:48:41.831Z,101243.63
2023-05-05T07:51:09.266Z,101251.66
2023-05-05T07:53:36.335Z,101252.72
2023-05-05T07:56:03.548Z,101245.31
2023-05-05T07:58:30.419Z,101245.25
2023-05-05T08:00:57.485Z,101251.09
2023-05-05T08:03:25.123Z,101247.03
2023-05-05T08:05:54.622Z,101247.91
2023-05-05T08:08:25.188Z,101250.38
2023-05-05T08:10:53.478Z,101252.72
2023-05-05T08:13:20.673Z,101249.53
2023-05-05T08:15:48.409Z,101249.41
2023-05-05T08:18:15.626Z,101242.78
2023-05-05T08:20:42.600Z,101245.88
2023-05-05T08:23:09.687Z,101240.13
2023-05-05T08:25:36.616Z,101229.41
2023-05-05T08:28:03.714Z,101227.69
2023-05-05T08:30:32.406Z,101233.06
2023-05-05T08:33:00.687Z,101223.44
2023-05-05T08:35:27.619Z,101219.84
2023-05-05T08:37:58.107Z,101213.97
2023-05-05T08:40:30.498Z,101202.56
2023-05-05T08:42:57.425Z,101198.16
2023-05-05T08:45:24.601Z,101190.16
2023-05-05T08:47:51.518Z,101198.38
2023-05-05T08:50:19.697Z,101202.84
2023-05-05T08:52:51.231Z,101212.88
2023-05-05T08:55:24.821Z,101205.84
2023-05-05T08:57:54.205Z,101225.94
2023-05-05T09:00:22.129Z,101218.41
2023-05-05T09:02:49.975Z,101208.09
2023-05-05T09:05:17.249Z,101208.84
2023-05-05T09:07:44.370Z,101213.22
2023-05-05T09:10:12.103Z,101219.06
2023-05-05T09:12:42.691Z,101215.00
2023-05-05T09:15:11.819Z,101217.69
2023-05-05T09:17:39.770Z,101211.13
2023-05-05T09:20:08.555Z,101213.09
2023-05-05T09:22:46.905Z,101212.84
2023-05-05T09:25:15.515Z,101216.75
2023-05-05T09:27:47.465Z,101217.72
2023-05-05T09:30:17.480Z,101215.16
2023-05-05T09:32:49.348Z,101216.88
2023-05-05T09:35:17.128Z,101212.00
2023-05-05T09:37:44.499Z,101222.63
2023-05-05T09:40:13.776Z,101219.06
2023-05-05T09:42:41.263Z,101220.41
2023-05-05T09:45:17.826Z,101229.56
2023-05-05T09:47:48.588Z,101229.69
2023-05-05T09:50:16.395Z,101218.72
2023-05-05T09:52:43.621Z,101218.25
2023-05-05T09:55:19.539Z,101215.53
2023-05-05T09:57:47.675Z,101219.72
2023-05-05T10:00:15.041Z,101207.25
2023-05-05T10:02:42.274Z,101214.06
2023-05-05T10:05:13.362Z,101216.75
2023-05-05T10:07:42.499Z,101208.34
2023-05-05T10:10:11.924Z,101217.13
2023-05-05T10:12:39.406Z,101205.28
2023-05-05T10:15:09.162Z,101209.66
2023-05-05T10:17:38.692Z,101204.75
2023-05-05T10:20:07.990Z,101199.16
2023-05-05T10:22:35.510Z,101203.50
2023-05-05T10:25:35.764Z,101207.88
2023-05-05T10:28:06.665Z,101197.00
2023-05-05T10:30:37.466Z,101192.84
2023-05-05T10:33:30.254Z,101193.22
2023-05-05T10:36:01.726Z,101188.59
2023-05-05T10:38:30.347Z,101192.19
2023-05-05T10:40:58.318Z,101188.81
2023-05-05T10:43:25.370Z,101191.00
2023-05-05T10:45:53.376Z,101195.59
2023-05-05T10:48:28.310Z,101193.47
2023-05-05T10:51:02.338Z,101184.19
2023-05-05T10:53:39.145Z,101182.41
2023-05-05T10:56:21.600Z,101182.22
2023-05-05T10:58:59.159Z,101181.06
2023-05-05T11:01:33.229Z,101180.50
2023-05-05T11:04:22.923Z,101188.09
2023-05-05T11:07:09.264Z,101173.47
2023-05-05T11:09:55.134Z,101178.06
2023-05-05T11:12:22.223Z,101166.22
2023-05-05T11:15:38.056Z,101158.28
2023-05-05T11:18:07.568Z,101164.84
2023-05-05T11:20:35.584Z,101159.47
2023-05-05T11:23:02.470Z,101164.91
2023-05-05T11:25:47.476Z,101157.56
2023-05-05T11:28:15.389Z,101155.88
2023-05-05T11:30:58.833Z,101148.50
2023-05-05T11:33:37.276Z,101143.16
2023-05-05T11:36:07.132Z,101134.78
2023-05-05T11:38:37.814Z,101132.84
2023-05-05T11:41:37.778Z,101137.59
2023-05-05T11:44:15.635Z,101133.97
2023-05-05T11:46:51.765Z,101121.72
2023-05-05T11:49:28.803Z,101129.56
2023-05-05T11:52:03.639Z,101120.75
2023-05-05T11:54:30.938Z,101122.16
2023-05-05T11:57:02.286Z,101119.50
2023-05-05T11:59:29.156Z,101122.47
2023-05-05T12:01:56.010Z,101124.72
2023-05-05T12:04:23.006Z,101117.91
2023-05-05T12:06:50.016Z,101127.41
2023-05-05T12:09:21.425Z,101120.88
2023-05-05T12:11:59.062Z,101129.41
2023-05-05T12:14:26.267Z,101130.41
2023-05-05T12:16:56.787Z,101133.28
2023-05-05T12:19:23.886Z,101123.19
2023-05-05T12:21:51.013Z,101122.31
2023-05-05T12:24:18.143Z,101119.63
2023-05-05T12:26:45.099Z,101119.91
2023-05-05T12:29:12.027Z,101111.53
2023-05-05T12:31:39.963Z,101114.78
2023-05-05T12:34:09.489Z,101115.91
2023-05-05T12:36:37.361Z,101115.84
2023-05-05T12:39:05.552Z,101106.03
2023-05-05T12:41:33.185Z,101112.41
2023-05-05T12:44:01.275Z,101106.41
2023-05-05T12:46:29.937Z,101094.50
2023-05-05T12:49:07.475Z,101095.44
2023-05-05T12:51:36.225Z,101102.03
2023-05-05T12:54:11.378Z,101090.19
2023-05-05T12:56:46.650Z,101081.16
2023-05-05T12:59:22.609Z,101097.72
2023-05-05T13:01:50.983Z,101096.97
2023-05-05T13:04:18.728Z,101088.09
2023-05-05T13:06:49.875Z,101097.44
2023-05-05T13:09:36.241Z,101094.31
2023-05-05T13:12:04.138Z,101094.72
2023-05-05T13:14:37.621Z,101088.34
2023-05-05T13:17:04.591Z,101080.91
2023-05-05T13:19:31.678Z,101070.88
2023-05-05T13:21:58.989Z,101074.13
2023-05-05T13:24:42.204Z,101054.38
2023-05-05T13:27:13.217Z,101056.75
2023-05-05T13:29:41.872Z,101050.22
2023-05-05T13:32:08.788Z,101042.38
2023-05-05T13:34:35.649Z,101043.38
2023-05-05T13:37:02.457Z,101046.94
2023-05-05T13:39:29.267Z,101036.19
2023-05-05T13:41:56.412Z,101049.56
2023-05-05T13:44:23.333Z,101037.09
2023-05-05T13:46:50.331Z,101032.50
2023-05-05T13:49:17.456Z,101032.84
2023-05-05T13:51:46.161Z,101024.97
2023-05-05T13:54:13.097Z,101025.47
2023-05-05T13:56:40.036Z,101016.00
2023-05-05T13:59:06.923Z,101010.06
2023-05-05T14:01:33.890Z,101021.06
2023-05-05T14:04:03.635Z,101018.19
2023-05-05T14:06:32.827Z,101013.19
2023-05-05T14:08:59.870Z,101002.81
2023-05-05T14:11:26.736Z,101002.16
2023-05-05T14:13:53.617Z,101000.66
2023-05-05T14:16:20.497Z,100998.47
2023-05-05T14:18:47.366Z,100993.56
2023-05-05T14:21:14.284Z,100992.16
2023-05-05T14:23:41.308Z,100990.31
2023-05-05T14:26:09.323Z,100989.88
2023-05-05T14:28:36.299Z,100986.09
2023-05-05T14:31:03.148Z,100989.81
2023-05-05T14:33:29.975Z,100992.91
2023-05-05T14:35:56.948Z,100982.56
2023-05-05T14:38:24.515Z,100990.47
2023-05-05T14:40:51.437Z,100988.13
2023-05-05T14:43:18.313Z,100993.28
2023-05-05T14:45:45.288Z,100989.41
2023-05-05T14:48:12.277Z,100997.84
2023-05-05T14:50:40.770Z,100983.31
2023-05-05T14:53:07.583Z,100974.78
2023-05-05T14:55:34.576Z,100983.81
2023-05-05T14:58:01.493Z,100982.50
2023-05-05T15:00:28.785Z,100984.88
2023-05-05T15:02:55.746Z,100984.13
2023-05-05T15:05:22.658Z,100986.50
2023-05-05T15:07:49.543Z,100986.28
2023-05-05T15:10:16.749Z,100973.41
2023-05-05T15:12:43.675Z,100976.88
2023-05-05T15:15:11.057Z,100981.06
2023-05-05T15:17:39.224Z,100978.34
2023-05-05T15:20:07.020Z,100985.28
2023-05-05T15:22:34.198Z,100970.66
2023-05-05T15:25:01.720Z,100967.31
2023-05-05T15:27:29.550Z,100973.09
2023-05-05T15:29:56.422Z,100964.69
2023-05-05T15:32:23.354Z,100966.47
2023-05-05T15:34:50.499Z,100971.19
2023-05-05T15:37:17.636Z,100973.31
2023-05-05T15:39:44.481Z,100971.25
2023-05-05T15:42:11.367Z,100971.44
2023-05-05T15:44:38.337Z,100962.31
2023-05-05T15:47:05.510Z,100966.47
2023-05-05T15:49:32.514Z,100967.44
2023-05-05T15:51:59.403Z,100963.88
2023-05-05T15:54:26.288Z,100960.63
2023-05-05T15:56:53.183Z,100960.28
2023-05-05T15:59:20.076Z,100969.16
2023-05-05T16:01:47.512Z,100958.44
2023-05-05T16:04:14.558Z,100957.81
2023-05-05T16:06:53.451Z,100947.53
2023-05-05T16:09:20.299Z,100955.19
2023-05-05T16:11:47.652Z,100947.94
2023-05-05T16:14:14.466Z,100953.22
2023-05-05T16:16:41.380Z,100951.59
2023-05-05T16:19:08.880Z,100959.75
2023-05-05T16:21:35.799Z,100946.59
2023-05-05T16:24:02.647Z,100950.34
2023-05-05T16:26:29.564Z,100959.44
2023-05-05T16:28:56.405Z,100958.28
2023-05-05T16:31:23.786Z,100961.16
2023-05-05T16:33:50.694Z,100956.75
2023-05-05T16:36:17.533Z,100954.22
2023-05-05T16:38:44.398Z,100947.16
2023-05-05T16:41:11.668Z,100949.56
2023-05-05T16:43:38.632Z,100946.16
2023-05-05T16:46:06.985Z,100941.09
2023-05-05T16:48:33.873Z,100943.75
2023-05-05T16:51:01.129Z,100945.47
2023-05-05T16:53:28.001Z,100938.09
2023-05-05T16:55:55.172Z,100948.97
2023-05-05T16:58:22.965Z,100942.31
2023-05-05T17:00:50.461Z,100945.81
2023-05-05T17:03:18.385Z,100940.56
2023-05-05T17:05:50.037Z,100937.06
2023-05-05T17:08:18.606Z,100929.94
2023-05-05T17:10:46.949Z,100928.78
2023-05-05T17:13:15.759Z,100926.09
2023-05-05T17:15:45.485Z,100924.25
2023-05-05T17:18:13.369Z,100928.56
2023-05-05T17:20:40.974Z,100935.34
2023-05-05T17:23:09.142Z,100928.44
2023-05-05T17:25:36.710Z,100927.22
2023-05-05T17:28:04.832Z,100929.22
2023-05-05T17:30:35.237Z,100931.59
2023-05-05T17:33:02.973Z,100929.06
2023-05-05T17:35:30.553Z,100930.28
2023-05-05T17:37:58.203Z,100921.53
2023-05-05T17:40:25.988Z,100931.63
2023-05-05T17:42:53.245Z,100928.22
2023-05-05T17:45:20.620Z,100929.91
2023-05-05T17:47:48.231Z,100936.28
2023-05-05T17:50:15.715Z,100924.59
2023-05-05T17:52:45.500Z,100931.78
2023-05-05T17:55:13.545Z,100937.13
2023-05-05T17:57:41.339Z,100943.00
2023-05-05T18:00:10.002Z,100940.81
2023-05-05T18:02:40.139Z,100941.59
2023-05-05T18:05:07.473Z,100930.16
2023-05-05T18:07:34.646Z,100941.53
2023-05-05T18:10:01.626Z,100937.47
2023-05-05T18:12:28.822Z,100940.72
2023-05-05T18:14:55.642Z,100940.25
2023-05-05T18:17:22.487Z,100940.72
2023-05-05T18:19:50.050Z,100938.53
2023-05-05T18:22:17.266Z,100931.59
2023-05-05T18:24:44.119Z,100946.38
2023-05-05T18:27:10.995Z,100946.59
2023-05-05T18:29:37.971Z,100957.34
2023-05-05T18:32:06.684Z,100952.25
2023-05-05T18:34:33.720Z,100940.53
2023-05-05T18:37:00.801Z,100950.31
2023-05-05T18:39:27.701Z,100954.38
2023-05-05T18:41:54.631Z,100947.97
2023-05-05T18:44:21.759Z,100958.56
2023-05-05T18:46:48.776Z,100957.59
2023-05-05T18:49:15.813Z,100962.13
2023-05-05T18:51:43.373Z,100970.13
2023-05-05T18:54:10.216Z,100980.72
2023-05-05T18:56:37.325Z,100973.06
2023-05-05T18:59:05.007Z,100980.72
2023-05-05T19:01:31.925Z,100980.09
2023-05-05T19:03:58.853Z,100994.50
2023-05-05T19:06:26.112Z,100995.59
2023-05-05T19:08:54.048Z,101005.56
2023-05-05T19:11:21.138Z,100999.97
2023-05-05T19:13:48.218Z,101008.50
2023-05-05T19:16:15.173Z,101009.09
2023-05-05T19:18:44.157Z,100994.25
2023-05-05T19:21:11.089Z,100995.44
2023-05-05T19:23:38.427Z,101009.22
2023-05-05T19:26:05.977Z,100994.84
2023-05-05T19:28:33.224Z,101004.47
2023-05-05T19:31:00.173Z,101000.78
2023-05-05T19:33:27.160Z,101006.13
2023-05-05T19:35:54.043Z,100991.31
2023-05-05T19:38:21.012Z,100991.53
2023-05-05T19:40:47.842Z,100983.75
2023-05-05T19:43:14.680Z,101001.97
2023-05-05T19:45:41.660Z,100988.09
2023-05-05T19:48:08.702Z,100994.75
2023-05-05T19:50:35.680Z,100995.13
2023-05-05T19:53:03.828Z,101006.78
2023-05-05T19:55:31.040Z,100994.59
2023-05-05T19:57:57.928Z,100989.25
2023-05-05T20:00:26.299Z,100994.22
2023-05-05T20:02:53.378Z,100981.56
2023-05-05T20:05:20.527Z,100993.94
2023-05-05T20:07:47.586Z,100997.41
2023-05-05T20:10:15.902Z,100996.13
2023-05-05T20:12:48.310Z,101005.22
2023-05-05T20:15:18.907Z,101003.25
2023-05-05T20:17:49.451Z,101005.59
2023-05-05T20:20:22.264Z,101000.59
2023-05-05T20:22:49.836Z,101003.66
2023-05-05T20:25:17.186Z,101005.41
2023-05-05T20:27:45.529Z,100998.09
2023-05-05T20:30:13.529Z,101002.00
2023-05-05T20:32:40.999Z,101005.13
2023-05-05T20:35:08.648Z,101000.97
2023-05-05T20:37:35.581Z,101004.34
2023-05-05T20:40:02.593Z,101004.16
2023-05-05T20:42:30.029Z,101002.59
2023-05-05T20:44:57.185Z,101001.34
2023-05-05T20:47:24.520Z,101008.31
2023-05-05T20:49:52.676Z,101003.59
2023-05-05T20:52:19.725Z,100998.44
2023-05-05T20:54:46.569Z,100998.16
2023-05-05T20:57:13.543Z,100989.75
2023-05-05T20:59:40.464Z,100991.44
2023-05-05T21:02:07.794Z,100977.41
2023-05-05T21:04:34.821Z,100977.25
2023-05-05T21:07:01.686Z,100971.31
2023-05-05T21:09:28.875Z,100971.78
2023-05-05T21:11:56.462Z,100968.19
2023-05-05T21:14:23.960Z,100981.41
2023-05-05T21:16:51.279Z,100972.53
2023-05-05T21:19:18.173Z,100970.63
2023-05-05T21:21:45.092Z,100966.91
2023-05-05T21:24:13.286Z,100967.59
2023-05-05T21:26:46.296Z,100952.63
2023-05-05T21:29:13.247Z,100959.25
2023-05-05T21:31:40.079Z,100954.78
2023-05-05T21:34:07.041Z,100952.31
2023-05-05T21:36:34.203Z,100953.81
2023-05-05T21:39:01.220Z,100955.84
2023-05-05T21:41:28.364Z,100955.84
2023-05-05T21:43:55.920Z,100948.91
2023-05-05T21:46:23.003Z,100939.16
2023-05-05T21:48:50.144Z,100940.47
2023-05-05T21:51:18.762Z,100945.16
2023-05-05T21:53:46.671Z,100935.06
2023-05-05T21:56:13.610Z,100941.59
2023-05-05T21:58:41.360Z,100943.38
2023-05-05T22:01:08.645Z,100944.09
2023-05-05T22:03:36.112Z,100951.91
2023-05-05T22:06:21.661Z,100960.09
2023-05-05T22:09:07.058Z,100955.94
2023-05-05T22:11:34.289Z,100953.75
2023-05-05T22:14:01.497Z,100964.84
2023-05-05T22:16:29.388Z,100955.03
2023-05-05T22:18:56.772Z,100955.38
2023-05-05T22:21:23.881Z,100957.63
2023-05-05T22:23:51.903Z,100975.38
2023-05-05T22:26:18.897Z,100984.97
2023-05-05T22:28:46.662Z,100980.28
2023-05-05T22:31:14.041Z,100979.81
2023-05-05T22:33:40.918Z,100974.50
2023-05-05T22:36:09.459Z,100993.72
2023-05-05T22:38:36.421Z,100993.59
2023-05-05T22:41:03.305Z,100997.47
2023-05-05T22:43:30.233Z,100987.75
2023-05-05T22:45:57.147Z,100983.03
2023-05-05T22:48:24.323Z,100991.78
2023-05-05T22:50:51.755Z,100998.44
2023-05-05T22:53:18.639Z,100995.53
2023-05-05T23:02:06.554Z,101001.25
2023-05-05T23:04:33.433Z,101003.63
2023-05-05T23:07:00.301Z,100995.44
2023-05-05T23:09:27.120Z,100982.00
2023-05-05T23:11:54.010Z,100973.09
2023-05-05T23:14:20.978Z,100981.22
2023-05-05T23:16:48.011Z,100979.81
2023-05-05T23:19:15.041Z,100975.28
2023-05-05T23:21:51.888Z,100975.88
2023-05-05T23:24:20.467Z,100976.16
2023-05-05T23:26:47.373Z,100976.47
2023-05-05T23:29:14.437Z,100965.19
2023-05-05T23:31:41.379Z,100966.13
2023-05-05T23:34:08.200Z,100968.38
2023-05-05T23:36:35.002Z,100972.66
2023-05-05T23:39:01.797Z,100963.06
2023-05-05T23:41:28.666Z,100950.03
2023-05-05T23:43:55.466Z,100956.69
2023-05-05T23:46:22.500Z,100949.63
2023-05-05T23:48:50.267Z,100949.06
2023-05-05T23:51:17.744Z,100943.53
2023-05-05T23:53:44.616Z,100938.81
2023-05-05T23:56:11.883Z,100930.09
2023-05-05T23:58:38.932Z,100929.31
